sensor_id;sensor_type;location;lat;lon;timestamp;pressure;altitude;pressure_sealevel;temperature;humidity
50103;BME280;35993;52.604;10.078;2023-01-31T00:00:56;101401.75;;;2.91;100.00
50103;BME280;35993;52.604;10.078;2023-01-31T00:03:22;101404.28;;;2.92;100.00
50103;BME280;35993;52.604;10.078;2023-01-31T00:05:47;101399.38;;;2.88;100.00
50103;BME280;35993;52.604;10.078;2023-01-31T00:08:13;101399.00;;;2.83;100.00
50103;BME280;35993;52.604;10.078;2023-01-31T00:10:40;101399.66;;;2.85;100.00
50103;BME280;35993;52.604;10.078;2023-01-31T00:13:05;101400.66;;;2.84;100.00
50103;BME280;35993;52.604;10.078;2023-01-31T00:15:31;101403.72;;;2.89;100.00
50103;BME280;35993;52.604;10.078;2023-01-31T00:17:56;101405.44;;;2.90;100.00
50103;BME280;35993;52.604;10.078;2023-01-31T00:20:22;101397.84;;;2.85;100.00
50103;BME280;35993;52.604;10.078;2023-01-31T00:22:48;101398.38;;;2.89;100.00
50103;BME280;35993;52.604;10.078;2023-01-31T00:25:13;101405.78;;;2.77;100.00
50103;BME280;35993;52.604;10.078;2023-01-31T00:27:39;101395.22;;;2.75;100.00
50103;BME280;35993;52.604;10.078;2023-01-31T00:30:05;101400.41;;;2.77;100.00
50103;BME280;35993;52.604;10.078;2023-01-31T00:32:31;101409.59;;;2.74;100.00
50103;BME280;35993;52.604;10.078;2023-01-31T00:34:56;101405.22;;;2.73;100.00
50103;BME280;35993;52.604;10.078;2023-01-31T00:37:22;101414.13;;;2.74;100.00
50103;BME280;35993;52.604;10.078;2023-01-31T00:39:47;101410.91;;;2.70;100.00
50103;BME280;35993;52.604;10.078;2023-01-31T00:42:16;101421.31;;;2.73;100.00
50103;BME280;35993;52.604;10.078;2023-01-31T00:44:41;101420.75;;;2.70;100.00
50103;BME280;35993;52.604;10.078;2023-01-31T00:47:07;101426.13;;;2.70;100.00
50103;BME280;35993;52.604;10.078;2023-01-31T00:49:32;101426.84;;;2.72;100.00
50103;BME280;35993;52.604;10.078;2023-01-31T00:51:58;101428.28;;;2.66;100.00
50103;BME280;35993;52.604;10.078;2023-01-31T00:54:23;101428.13;;;2.68;100.00
50103;BME280;35993;52.604;10.078;2023-01-31T00:56:49;101431.47;;;2.70;100.00
50103;BME280;35993;52.604;10.078;2023-01-31T00:59:14;101450.13;;;2.71;100.00
50103;BME280;35993;52.604;10.078;2023-01-31T01:01:40;101447.44;;;2.71;100.00
50103;BME280;35993;52.604;10.078;2023-01-31T01:04:06;101446.31;;;2.74;100.00
50103;BME280;35993;52.604;10.078;2023-01-31T01:06:33;101450.53;;;2.76;100.00
50103;BME280;35993;52.604;10.078;2023-01-31T01:08:58;101453.06;;;2.78;100.00
50103;BME280;35993;52.604;10.078;2023-01-31T01:11:30;101462.81;;;2.79;100.00
50103;BME280;35993;52.604;10.078;2023-01-31T01:13:58;101463.19;;;2.84;100.00
50103;BME280;35993;52.604;10.078;2023-01-31T01:16:33;101480.44;;;2.82;100.00
50103;BME280;35993;52.604;10.078;2023-01-31T01:19:03;101494.13;;;2.78;100.00
50103;BME280;35993;52.604;10.078;2023-01-31T01:21:31;101493.44;;;2.76;100.00
50103;BME280;35993;52.604;10.078;2023-01-31T01:24:00;101498.78;;;2.76;100.00
50103;BME280;35993;52.604;10.078;2023-01-31T01:26:29;101504.28;;;2.75;100.00
50103;BME280;35993;52.604;10.078;2023-01-31T01:28:56;101501.75;;;2.73;100.00
50103;BME280;35993;52.604;10.078;2023-01-31T01:31:22;101489.22;;;2.74;100.00
50103;BME280;35993;52.604;10.078;2023-01-31T01:33:59;101493.31;;;2.68;100.00
50103;BME280;35993;52.604;10.078;2023-01-31T01:36:25;101496.84;;;2.69;100.00
50103;BME280;35993;52.604;10.078;2023-01-31T01:38:51;101504.59;;;2.72;100.00
50103;BME280;35993;52.604;10.078;2023-01-31T01:41:18;101507.81;;;2.75;100.00
50103;BME280;35993;52.604;10.078;2023-01-31T01:43:51;101500.22;;;2.71;100.00
50103;BME280;35993;52.604;10.078;2023-01-31T01:46:24;101504.28;;;2.75;100.00
50103;BME280;35993;52.604;10.078;2023-01-31T01:48:56;101483.44;;;2.69;100.00
50103;BME280;35993;52.604;10.078;2023-01-31T01:51:23;101484.44;;;2.68;100.00
50103;BME280;35993;52.604;10.078;2023-01-31T01:53:53;101482.72;;;2.67;100.00
50103;BME280;35993;52.604;10.078;2023-01-31T01:56:42;101476.22;;;2.69;100.00
50103;BME280;35993;52.604;10.078;2023-01-31T01:59:15;101476.38;;;2.68;100.00
50103;BME280;35993;52.604;10.078;2023-01-31T02:01:41;101495.16;;;2.68;100.00
50103;BME280;35993;52.604;10.078;2023-01-31T02:04:12;101494.69;;;2.72;100.00
50103;BME280;35993;52.604;10.078;2023-01-31T02:06:39;101493.03;;;2.71;100.00
50103;BME280;35993;52.604;10.078;2023-01-31T02:09:06;101491.34;;;2.70;100.00
50103;BME280;35993;52.604;10.078;2023-01-31T02:11:36;101489.22;;;2.64;100.00
50103;BME280;35993;52.604;10.078;2023-01-31T02:14:04;101490.06;;;2.65;100.00
50103;BME280;35993;52.604;10.078;2023-01-31T02:16:33;101493.75;;;2.64;100.00
50103;BME280;35993;52.604;10.078;2023-01-31T02:18:59;101496.03;;;2.58;100.00
50103;BME280;35993;52.604;10.078;2023-01-31T02:30:20;101501.56;;;2.47;100.00
50103;BME280;35993;52.604;10.078;2023-01-31T02:32:54;101507.19;;;2.44;100.00
50103;BME280;35993;52.604;10.078;2023-01-31T02:35:31;101510.84;;;2.43;100.00
50103;BME280;35993;52.604;10.078;2023-01-31T02:38:28;101512.41;;;2.45;100.00
50103;BME280;35993;52.604;10.078;2023-01-31T02:41:15;101524.81;;;2.46;100.00
50103;BME280;35993;52.604;10.078;2023-01-31T02:47:05;101536.66;;;2.54;100.00
50103;BME280;35993;52.604;10.078;2023-01-31T02:50:10;101541.59;;;2.58;100.00
50103;BME280;35993;52.604;10.078;2023-01-31T02:52:42;101542.28;;;2.60;100.00
50103;BME280;35993;52.604;10.078;2023-01-31T02:55:23;101533.66;;;2.67;100.00
50103;BME280;35993;52.604;10.078;2023-01-31T02:58:11;101533.38;;;2.70;100.00
50103;BME280;35993;52.604;10.078;2023-01-31T03:00:42;101530.41;;;2.73;100.00
50103;BME280;35993;52.604;10.078;2023-01-31T03:03:22;101539.13;;;2.75;100.00
50103;BME280;35993;52.604;10.078;2023-01-31T03:08:56;101530.09;;;2.76;100.00
50103;BME280;35993;52.604;10.078;2023-01-31T03:11:29;101535.19;;;2.79;100.00
50103;BME280;35993;52.604;10.078;2023-01-31T03:14:06;101530.50;;;2.81;100.00
50103;BME280;35993;52.604;10.078;2023-01-31T03:16:44;101520.81;;;2.80;100.00
50103;BME280;35993;52.604;10.078;2023-01-31T03:19:37;101520.66;;;2.82;100.00
50103;BME280;35993;52.604;10.078;2023-01-31T03:22:11;101519.94;;;2.79;100.00
50103;BME280;35993;52.604;10.078;2023-01-31T03:24:42;101510.75;;;2.82;100.00
50103;BME280;35993;52.604;10.078;2023-01-31T03:27:09;101514.31;;;2.83;100.00
50103;BME280;35993;52.604;10.078;2023-01-31T03:29:38;101513.16;;;2.85;100.00
50103;BME280;35993;52.604;10.078;2023-01-31T03:32:14;101519.50;;;2.84;100.00
50103;BME280;35993;52.604;10.078;2023-01-31T03:34:42;101514.00;;;2.86;100.00
50103;BME280;35993;52.604;10.078;2023-01-31T03:37:36;101511.31;;;2.86;100.00
50103;BME280;35993;52.604;10.078;2023-01-31T03:40:15;101509.78;;;2.83;100.00
50103;BME280;35993;52.604;10.078;2023-01-31T03:42:53;101511.63;;;2.83;100.00
50103;BME280;35993;52.604;10.078;2023-01-31T03:47:54;101511.19;;;2.77;100.00
50103;BME280;35993;52.604;10.078;2023-01-31T03:50:30;101502.16;;;2.78;100.00
50103;BME280;35993;52.604;10.078;2023-01-31T03:53:08;101496.78;;;2.78;100.00
50103;BME280;35993;52.604;10.078;2023-01-31T03:55:41;101500.63;;;2.76;100.00
50103;BME280;35993;52.604;10.078;2023-01-31T03:58:09;101503.16;;;2.77;100.00
50103;BME280;35993;52.604;10.078;2023-01-31T04:00:41;101496.94;;;2.77;100.00
50103;BME280;35993;52.604;10.078;2023-01-31T04:03:23;101509.38;;;2.78;100.00
50103;BME280;35993;52.604;10.078;2023-01-31T04:05:52;101500.47;;;2.77;100.00
50103;BME280;35993;52.604;10.078;2023-01-31T04:08:19;101495.97;;;2.78;100.00
50103;BME280;35993;52.604;10.078;2023-01-31T04:10:53;101490.75;;;2.76;100.00
50103;BME280;35993;52.604;10.078;2023-01-31T04:13:19;101486.53;;;2.74;100.00
50103;BME280;35993;52.604;10.078;2023-01-31T04:15:46;101497.53;;;2.71;100.00
50103;BME280;35993;52.604;10.078;2023-01-31T04:18:12;101498.38;;;2.71;100.00
50103;BME280;35993;52.604;10.078;2023-01-31T04:20:37;101492.31;;;2.69;100.00
50103;BME280;35993;52.604;10.078;2023-01-31T04:23:03;101493.88;;;2.72;100.00
50103;BME280;35993;52.604;10.078;2023-01-31T04:25:28;101492.63;;;2.66;100.00
50103;BME280;35993;52.604;10.078;2023-01-31T04:27:54;101490.47;;;2.70;100.00
50103;BME280;35993;52.604;10.078;2023-01-31T04:30:20;101494.28;;;2.67;100.00
50103;BME280;35993;52.604;10.078;2023-01-31T04:32:45;101498.09;;;2.65;100.00
50103;BME280;35993;52.604;10.078;2023-01-31T04:35:11;101501.81;;;2.64;100.00
50103;BME280;35993;52.604;10.078;2023-01-31T04:37:36;101502.78;;;2.62;100.00
50103;BME280;35993;52.604;10.078;2023-01-31T04:40:02;101512.66;;;2.62;100.00
50103;BME280;35993;52.604;10.078;2023-01-31T04:42:28;101520.69;;;2.62;100.00
50103;BME280;35993;52.604;10.078;2023-01-31T04:44:54;101513.66;;;2.61;100.00
50103;BME280;35993;52.604;10.078;2023-01-31T04:47:19;101514.78;;;2.58;100.00
50103;BME280;35993;52.604;10.078;2023-01-31T04:49:45;101529.44;;;2.54;100.00
50103;BME280;35993;52.604;10.078;2023-01-31T04:52:10;101520.56;;;2.54;100.00
50103;BME280;35993;52.604;10.078;2023-01-31T04:54:36;101518.88;;;2.53;100.00
50103;BME280;35993;52.604;10.078;2023-01-31T04:57:02;101506.47;;;2.52;100.00
50103;BME280;35993;52.604;10.078;2023-01-31T04:59:27;101511.97;;;2.50;100.00
50103;BME280;35993;52.604;10.078;2023-01-31T05:01:53;101519.44;;;2.46;100.00
50103;BME280;35993;52.604;10.078;2023-01-31T05:04:18;101507.03;;;2.45;100.00
50103;BME280;35993;52.604;10.078;2023-01-31T05:06:46;101515.38;;;2.42;100.00
50103;BME280;35993;52.604;10.078;2023-01-31T05:09:12;101510.44;;;2.38;100.00
50103;BME280;35993;52.604;10.078;2023-01-31T05:11:37;101489.28;;;2.35;100.00
50103;BME280;35993;52.604;10.078;2023-01-31T05:14:03;101492.81;;;2.35;100.00
50103;BME280;35993;52.604;10.078;2023-01-31T05:16:28;101497.63;;;2.32;100.00
50103;BME280;35993;52.604;10.078;2023-01-31T05:18:54;101494.41;;;2.28;100.00
50103;BME280;35993;52.604;10.078;2023-01-31T05:21:19;101506.25;;;2.25;100.00
50103;BME280;35993;52.604;10.078;2023-01-31T05:23:46;101501.31;;;2.21;100.00
50103;BME280;35993;52.604;10.078;2023-01-31T05:26:11;101503.72;;;2.24;100.00
50103;BME280;35993;52.604;10.078;2023-01-31T05:28:37;101506.09;;;2.17;100.00
50103;BME280;35993;52.604;10.078;2023-01-31T05:31:05;101527.53;;;2.17;100.00
50103;BME280;35993;52.604;10.078;2023-01-31T05:33:31;101519.38;;;2.19;100.00
50103;BME280;35993;52.604;10.078;2023-01-31T05:35:58;101531.63;;;2.21;100.00
50103;BME280;35993;52.604;10.078;2023-01-31T05:38:24;101510.75;;;2.25;100.00
50103;BME280;35993;52.604;10.078;2023-01-31T05:40:49;101520.06;;;2.31;100.00
50103;BME280;35993;52.604;10.078;2023-01-31T05:43:15;101518.91;;;2.33;100.00
50103;BME280;35993;52.604;10.078;2023-01-31T05:45:41;101516.81;;;2.37;100.00
50103;BME280;35993;52.604;10.078;2023-01-31T05:48:08;101512.13;;;2.39;100.00
50103;BME280;35993;52.604;10.078;2023-01-31T05:50:33;101510.31;;;2.39;100.00
50103;BME280;35993;52.604;10.078;2023-01-31T05:53:07;101513.84;;;2.40;100.00
50103;BME280;35993;52.604;10.078;2023-01-31T05:55:33;101504.66;;;2.42;100.00
50103;BME280;35993;52.604;10.078;2023-01-31T05:57:59;101520.31;;;2.47;100.00
50103;BME280;35993;52.604;10.078;2023-01-31T06:00:25;101515.63;;;2.49;100.00
50103;BME280;35993;52.604;10.078;2023-01-31T06:02:50;101517.50;;;2.49;100.00
50103;BME280;35993;52.604;10.078;2023-01-31T06:05:17;101510.00;;;2.52;100.00
50103;BME280;35993;52.604;10.078;2023-01-31T06:07:42;101501.66;;;2.55;100.00
50103;BME280;35993;52.604;10.078;2023-01-31T06:10:09;101508.00;;;2.54;100.00
50103;BME280;35993;52.604;10.078;2023-01-31T06:12:35;101510.44;;;2.48;100.00
50103;BME280;35993;52.604;10.078;2023-01-31T06:15:02;101504.91;;;2.49;100.00
50103;BME280;35993;52.604;10.078;2023-01-31T06:17:27;101507.31;;;2.52;100.00
50103;BME280;35993;52.604;10.078;2023-01-31T06:19:53;101507.31;;;2.52;100.00
50103;BME280;35993;52.604;10.078;2023-01-31T06:22:19;101513.53;;;2.53;100.00
50103;BME280;35993;52.604;10.078;2023-01-31T06:24:44;101512.38;;;2.55;100.00
50103;BME280;35993;52.604;10.078;2023-01-31T06:27:10;101498.16;;;2.55;100.00
50103;BME280;35993;52.604;10.078;2023-01-31T06:29:36;101493.63;;;2.55;100.00
50103;BME280;35993;52.604;10.078;2023-01-31T06:32:01;101499.28;;;2.52;100.00
50103;BME280;35993;52.604;10.078;2023-01-31T06:34:27;101489.69;;;2.50;100.00
50103;BME280;35993;52.604;10.078;2023-01-31T06:36:52;101495.31;;;2.56;100.00
50103;BME280;35993;52.604;10.078;2023-01-31T06:39:18;101494.34;;;2.57;100.00
50103;BME280;35993;52.604;10.078;2023-01-31T06:41:43;101480.06;;;2.57;100.00
50103;BME280;35993;52.604;10.078;2023-01-31T06:44:09;101485.59;;;2.55;100.00
50103;BME280;35993;52.604;10.078;2023-01-31T06:46:35;101473.16;;;2.54;100.00
50103;BME280;35993;52.604;10.078;2023-01-31T06:49:00;101469.34;;;2.57;100.00
50103;BME280;35993;52.604;10.078;2023-01-31T06:51:26;101468.38;;;2.58;100.00
50103;BME280;35993;52.604;10.078;2023-01-31T06:53:52;101465.00;;;2.56;100.00
50103;BME280;35993;52.604;10.078;2023-01-31T06:56:18;101453.13;;;2.58;100.00
50103;BME280;35993;52.604;10.078;2023-01-31T06:58:44;101442.25;;;2.60;100.00
50103;BME280;35993;52.604;10.078;2023-01-31T07:01:11;101446.75;;;2.59;100.00
50103;BME280;35993;52.604;10.078;2023-01-31T07:03:38;101443.09;;;2.60;100.00
50103;BME280;35993;52.604;10.078;2023-01-31T07:06:04;101444.94;;;2.60;100.00
50103;BME280;35993;52.604;10.078;2023-01-31T07:08:30;101442.94;;;2.62;100.00
50103;BME280;35993;52.604;10.078;2023-01-31T07:10:57;101439.28;;;2.63;100.00
50103;BME280;35993;52.604;10.078;2023-01-31T07:13:23;101436.16;;;2.68;100.00
50103;BME280;35993;52.604;10.078;2023-01-31T07:15:49;101437.88;;;2.69;100.00
50103;BME280;35993;52.604;10.078;2023-01-31T07:18:14;101419.94;;;2.69;100.00
50103;BME280;35993;52.604;10.078;2023-01-31T07:20:41;101411.56;;;2.72;100.00
50103;BME280;35993;52.604;10.078;2023-01-31T07:23:07;101413.13;;;2.75;100.00
50103;BME280;35993;52.604;10.078;2023-01-31T07:25:34;101402.25;;;2.76;100.00
50103;BME280;35993;52.604;10.078;2023-01-31T07:28:01;101392.38;;;2.77;100.00
50103;BME280;35993;52.604;10.078;2023-01-31T07:30:27;101399.81;;;2.83;100.00
50103;BME280;35993;52.604;10.078;2023-01-31T07:32:53;101394.47;;;2.83;100.00
50103;BME280;35993;52.604;10.078;2023-01-31T07:35:19;101385.59;;;2.83;100.00
50103;BME280;35993;52.604;10.078;2023-01-31T07:37:45;101376.84;;;2.81;100.00
50103;BME280;35993;52.604;10.078;2023-01-31T07:40:13;101373.31;;;2.80;100.00
50103;BME280;35993;52.604;10.078;2023-01-31T07:42:39;101375.84;;;2.82;100.00
50103;BME280;35993;52.604;10.078;2023-01-31T07:45:06;101381.59;;;2.87;100.00
50103;BME280;35993;52.604;10.078;2023-01-31T07:47:32;101371.72;;;2.87;100.00
50103;BME280;35993;52.604;10.078;2023-01-31T07:49:58;101355.34;;;2.90;100.00
50103;BME280;35993;52.604;10.078;2023-01-31T07:52:23;101361.91;;;2.96;100.00
50103;BME280;35993;52.604;10.078;2023-01-31T07:54:49;101361.59;;;2.99;100.00
50103;BME280;35993;52.604;10.078;2023-01-31T07:57:14;101364.84;;;3.03;100.00
50103;BME280;35993;52.604;10.078;2023-01-31T07:59:44;101364.22;;;3.09;100.00
50103;BME280;35993;52.604;10.078;2023-01-31T08:02:15;101350.91;;;3.17;100.00
50103;BME280;35993;52.604;10.078;2023-01-31T08:05:00;101349.78;;;3.20;100.00
50103;BME280;35993;52.604;10.078;2023-01-31T08:07:26;101356.50;;;3.24;100.00
50103;BME280;35993;52.604;10.078;2023-01-31T08:09:52;101345.28;;;3.28;100.00
50103;BME280;35993;52.604;10.078;2023-01-31T08:12:18;101337.63;;;3.34;100.00
50103;BME280;35993;52.604;10.078;2023-01-31T08:14:43;101333.50;;;3.39;100.00
50103;BME280;35993;52.604;10.078;2023-01-31T08:17:09;101331.19;;;3.44;100.00
50103;BME280;35993;52.604;10.078;2023-01-31T08:19:35;101328.19;;;3.48;100.00
50103;BME280;35993;52.604;10.078;2023-01-31T08:22:02;101322.00;;;3.47;100.00
50103;BME280;35993;52.604;10.078;2023-01-31T08:24:32;101325.59;;;3.56;100.00
50103;BME280;35993;52.604;10.078;2023-01-31T08:26:58;101315.00;;;3.54;100.00
50103;BME280;35993;52.604;10.078;2023-01-31T08:29:25;101305.63;;;3.58;100.00
50103;BME280;35993;52.604;10.078;2023-01-31T08:31:51;101297.41;;;3.60;100.00
50103;BME280;35993;52.604;10.078;2023-01-31T08:34:17;101287.50;;;3.60;100.00
50103;BME280;35993;52.604;10.078;2023-01-31T08:36:43;101296.44;;;3.61;100.00
50103;BME280;35993;52.604;10.078;2023-01-31T08:39:09;101297.63;;;3.67;100.00
50103;BME280;35993;52.604;10.078;2023-01-31T08:41:36;101296.19;;;3.72;100.00
50103;BME280;35993;52.604;10.078;2023-01-31T08:44:03;101295.00;;;3.75;100.00
50103;BME280;35993;52.604;10.078;2023-01-31T08:46:31;101298.38;;;3.77;100.00
50103;BME280;35993;52.604;10.078;2023-01-31T08:48:59;101279.09;;;3.82;100.00
50103;BME280;35993;52.604;10.078;2023-01-31T08:51:25;101272.03;;;3.81;100.00
50103;BME280;35993;52.604;10.078;2023-01-31T08:53:50;101289.84;;;3.82;100.00
50103;BME280;35993;52.604;10.078;2023-01-31T08:56:16;101299.44;;;3.84;100.00
50103;BME280;35993;52.604;10.078;2023-01-31T08:58:43;101288.22;;;3.89;100.00
50103;BME280;35993;52.604;10.078;2023-01-31T09:01:14;101269.09;;;3.92;100.00
50103;BME280;35993;52.604;10.078;2023-01-31T09:03:40;101249.28;;;3.93;100.00
50103;BME280;35993;52.604;10.078;2023-01-31T09:06:09;101246.81;;;4.00;100.00
50103;BME280;35993;52.604;10.078;2023-01-31T09:08:36;101257.06;;;4.04;100.00
50103;BME280;35993;52.604;10.078;2023-01-31T09:11:02;101253.22;;;4.07;100.00
50103;BME280;35993;52.604;10.078;2023-01-31T09:13:28;101252.53;;;4.05;100.00
50103;BME280;35993;52.604;10.078;2023-01-31T09:18:27;101244.81;;;4.02;100.00
50103;BME280;35993;52.604;10.078;2023-01-31T09:20:53;101243.63;;;4.04;100.00
50103;BME280;35993;52.604;10.078;2023-01-31T09:23:20;101245.81;;;4.01;100.00
50103;BME280;35993;52.604;10.078;2023-01-31T09:25:53;101246.81;;;4.00;100.00
50103;BME280;35993;52.604;10.078;2023-01-31T09:28:20;101265.06;;;3.96;100.00
50103;BME280;35993;52.604;10.078;2023-01-31T09:30:46;101229.50;;;3.94;100.00
50103;BME280;35993;52.604;10.078;2023-01-31T09:33:12;101241.91;;;3.95;100.00
50103;BME280;35993;52.604;10.078;2023-01-31T09:35:37;101240.50;;;3.83;100.00
50103;BME280;35993;52.604;10.078;2023-01-31T09:38:03;101230.72;;;3.73;100.00
50103;BME280;35993;52.604;10.078;2023-01-31T09:40:31;101221.13;;;3.71;100.00
50103;BME280;35993;52.604;10.078;2023-01-31T09:43:00;101216.06;;;3.68;100.00
50103;BME280;35993;52.604;10.078;2023-01-31T09:45:28;101221.44;;;3.68;100.00
50103;BME280;35993;52.604;10.078;2023-01-31T09:47:58;101213.41;;;3.68;100.00
50103;BME280;35993;52.604;10.078;2023-01-31T09:52:54;101223.06;;;3.60;100.00
50103;BME280;35993;52.604;10.078;2023-01-31T09:55:35;101223.72;;;3.54;100.00
50103;BME280;35993;52.604;10.078;2023-01-31T10:06:02;101207.25;;;3.49;100.00
50103;BME280;35993;52.604;10.078;2023-01-31T10:08:41;101196.19;;;3.52;100.00
50103;BME280;35993;52.604;10.078;2023-01-31T10:11:23;101206.41;;;3.49;100.00
50103;BME280;35993;52.604;10.078;2023-01-31T10:13:56;101196.53;;;3.49;100.00
50103;BME280;35993;52.604;10.078;2023-01-31T10:16:29;101202.38;;;3.53;100.00
50103;BME280;35993;52.604;10.078;2023-01-31T10:19:07;101192.50;;;3.53;100.00
50103;BME280;35993;52.604;10.078;2023-01-31T10:21:39;101181.78;;;3.53;100.00
50103;BME280;35993;52.604;10.078;2023-01-31T10:24:29;101175.72;;;3.51;100.00
50103;BME280;35993;52.604;10.078;2023-01-31T10:27:11;101180.25;;;3.51;100.00
50103;BME280;35993;52.604;10.078;2023-01-31T10:29:43;101183.94;;;3.50;100.00
50103;BME280;35993;52.604;10.078;2023-01-31T10:32:33;101174.88;;;3.51;100.00
50103;BME280;35993;52.604;10.078;2023-01-31T10:35:32;101153.25;;;3.52;100.00
50103;BME280;35993;52.604;10.078;2023-01-31T10:38:27;101148.56;;;3.54;100.00
50103;BME280;35993;52.604;10.078;2023-01-31T10:40:56;101140.81;;;3.51;100.00
50103;BME280;35993;52.604;10.078;2023-01-31T10:43:38;101132.59;;;3.53;100.00
50103;BME280;35993;52.604;10.078;2023-01-31T10:46:10;101137.31;;;3.59;100.00
50103;BME280;35993;52.604;10.078;2023-01-31T10:48:36;101129.09;;;3.60;100.00
50103;BME280;35993;52.604;10.078;2023-01-31T10:51:14;101113.53;;;3.64;100.00
50103;BME280;35993;52.604;10.078;2023-01-31T10:54:49;101111.53;;;3.66;100.00
50103;BME280;35993;52.604;10.078;2023-01-31T10:56:48;101104.31;;;3.67;100.00
50103;BME280;35993;52.604;10.078;2023-01-31T11:01:45;101097.59;;;3.71;100.00
50103;BME280;35993;52.604;10.078;2023-01-31T11:06:57;101106.00;;;3.68;100.00
50103;BME280;35993;52.604;10.078;2023-01-31T11:09:28;101096.09;;;3.68;100.00
50103;BME280;35993;52.604;10.078;2023-01-31T11:12:00;101098.63;;;3.70;100.00
50103;BME280;35993;52.604;10.078;2023-01-31T11:14:26;101099.16;;;3.73;100.00
50103;BME280;35993;52.604;10.078;2023-01-31T11:17:19;101106.03;;;3.76;100.00
50103;BME280;35993;52.604;10.078;2023-01-31T11:19:48;101084.88;;;3.73;100.00
50103;BME280;35993;52.604;10.078;2023-01-31T11:22:26;101094.44;;;3.75;100.00
50103;BME280;35993;52.604;10.078;2023-01-31T11:24:54;101092.44;;;3.77;100.00
50103;BME280;35993;52.604;10.078;2023-01-31T11:27:26;101085.56;;;3.75;100.00
50103;BME280;35993;52.604;10.078;2023-01-31T11:29:54;101072.97;;;3.75;100.00
50103;BME280;35993;52.604;10.078;2023-01-31T11:32:27;101066.59;;;3.76;100.00
50103;BME280;35993;52.604;10.078;2023-01-31T11:35:01;101064.72;;;3.77;100.00
50103;BME280;35993;52.604;10.078;2023-01-31T11:37:30;101069.28;;;3.76;100.00
50103;BME280;35993;52.604;10.078;2023-01-31T11:39:59;101057.00;;;3.74;100.00
50103;BME280;35993;52.604;10.078;2023-01-31T11:42:25;101041.59;;;3.76;100.00
50103;BME280;35993;52.604;10.078;2023-01-31T11:47:30;101033.53;;;3.76;100.00
50103;BME280;35993;52.604;10.078;2023-01-31T11:49:57;101005.50;;;3.79;100.00
50103;BME280;35993;52.604;10.078;2023-01-31T11:52:29;101015.75;;;3.83;100.00
50103;BME280;35993;52.604;10.078;2023-01-31T11:54:59;101021.63;;;3.87;100.00
50103;BME280;35993;52.604;10.078;2023-01-31T11:57:30;101007.50;;;3.85;100.00
50103;BME280;35993;52.604;10.078;2023-01-31T11:59:59;101008.03;;;3.88;100.00
50103;BME280;35993;52.604;10.078;2023-01-31T12:02:37;101002.34;;;3.91;100.00
50103;BME280;35993;52.604;10.078;2023-01-31T12:05:15;101008.72;;;3.90;100.00
50103;BME280;35993;52.604;10.078;2023-01-31T12:07:47;100999.66;;;3.91;100.00
50103;BME280;35993;52.604;10.078;2023-01-31T12:10:40;100990.56;;;3.92;100.00
50103;BME280;35993;52.604;10.078;2023-01-31T12:13:14;100977.81;;;3.94;100.00
50103;BME280;35993;52.604;10.078;2023-01-31T12:15:52;100961.53;;;3.96;100.00
50103;BME280;35993;52.604;10.078;2023-01-31T12:24:18;100968.75;;;4.04;100.00
50103;BME280;35993;52.604;10.078;2023-01-31T12:30:06;100967.75;;;4.05;100.00
50103;BME280;35993;52.604;10.078;2023-01-31T12:35:33;100982.34;;;4.02;100.00
50103;BME280;35993;52.604;10.078;2023-01-31T12:43:54;100967.75;;;4.05;100.00
50103;BME280;35993;52.604;10.078;2023-01-31T12:49:22;100979.50;;;4.04;100.00
50103;BME280;35993;52.604;10.078;2023-01-31T12:57:40;100973.28;;;4.03;100.00
50103;BME280;35993;52.604;10.078;2023-01-31T13:03:17;100978.84;;;4.02;100.00
50103;BME280;35993;52.604;10.078;2023-01-31T13:05:53;100973.47;;;4.02;100.00
50103;BME280;35993;52.604;10.078;2023-01-31T13:08:27;100964.22;;;3.96;100.00
50103;BME280;35993;52.604;10.078;2023-01-31T13:10:59;100973.28;;;4.03;100.00
50103;BME280;35993;52.604;10.078;2023-01-31T13:13:27;100971.09;;;3.99;100.00
50103;BME280;35993;52.604;10.078;2023-01-31T13:15:59;100968.09;;;4.02;100.00
50103;BME280;35993;52.604;10.078;2023-01-31T13:18:26;100975.47;;;4.00;100.00
50103;BME280;35993;52.604;10.078;2023-01-31T13:20:56;100964.72;;;4.00;100.00
50103;BME280;35993;52.604;10.078;2023-01-31T13:23:26;100961.84;;;4.01;100.00
50103;BME280;35993;52.604;10.078;2023-01-31T13:26:13;100965.22;;;4.03;100.00
50103;BME280;35993;52.604;10.078;2023-01-31T13:31:30;100962.38;;;4.05;100.00
50103;BME280;35993;52.604;10.078;2023-01-31T13:36:43;100955.81;;;4.07;100.00
50103;BME280;35993;52.604;10.078;2023-01-31T13:39:18;100962.06;;;4.08;100.00
50103;BME280;35993;52.604;10.078;2023-01-31T13:41:44;100948.75;;;4.06;100.00
50103;BME280;35993;52.604;10.078;2023-01-31T13:44:12;100955.81;;;4.07;100.00
50103;BME280;35993;52.604;10.078;2023-01-31T13:52:11;100976.13;;;4.10;100.00
50103;BME280;35993;52.604;10.078;2023-01-31T13:54:42;100940.03;;;4.13;100.00
50103;BME280;35993;52.604;10.078;2023-01-31T13:57:28;100952.13;;;4.17;100.00
50103;BME280;35993;52.604;10.078;2023-01-31T14:00:09;100946.59;;;4.18;100.00
50103;BME280;35993;52.604;10.078;2023-01-31T14:03:24;100944.91;;;4.17;100.00
50103;BME280;35993;52.604;10.078;2023-01-31T14:05:58;100931.13;;;4.20;100.00
50103;BME280;35993;52.604;10.078;2023-01-31T14:08:28;100934.13;;;4.25;100.00
50103;BME280;35993;52.604;10.078;2023-01-31T14:10:57;100936.81;;;4.25;100.00
50103;BME280;35993;52.604;10.078;2023-01-31T14:13:46;100933.97;;;4.27;100.00